sensor_id;sensor_type;location;lat;lon;timestamp;P1;durP1;ratioP1;P2;durP2;ratioP2
47519;SDS011;33252;48.122;11.538;2023-05-15T00:02:04;5.75;;;4.35;;
47519;SDS011;33252;48.122;11.538;2023-05-15T00:04:29;7.05;;;4.18;;
47519;SDS011;33252;48.122;11.538;2023-05-15T00:06:56;5.75;;;4.13;;
47519;SDS011;33252;48.122;11.538;2023-05-15T00:09:21;5.78;;;4.15;;
47519;SDS011;33252;48.122;11.538;2023-05-15T00:11:47;5.45;;;4.18;;
47519;SDS011;33252;48.122;11.538;2023-05-15T00:14:13;5.35;;;4.10;;
47519;SDS011;33252;48.122;11.538;2023-05-15T00:16:38;6.78;;;4.65;;
47519;SDS011;33252;48.122;11.538;2023-05-15T00:19:04;5.90;;;4.38;;
47519;SDS011;33252;48.122;11.538;2023-05-15T00:21:30;7.03;;;5.00;;
47519;SDS011;33252;48.122;11.538;2023-05-15T00:23:55;5.95;;;4.13;;
47519;SDS011;33252;48.122;11.538;2023-05-15T00:26:22;5.72;;;5.00;;
47519;SDS011;33252;48.122;11.538;2023-05-15T00:28:48;6.68;;;4.60;;
47519;SDS011;33252;48.122;11.538;2023-05-15T00:31:14;6.93;;;4.82;;
47519;SDS011;33252;48.122;11.538;2023-05-15T00:33:40;6.15;;;5.05;;
47519;SDS011;33252;48.122;11.538;2023-05-15T00:36:06;8.15;;;5.13;;
47519;SDS011;33252;48.122;11.538;2023-05-15T00:38:32;7.95;;;5.43;;
47519;SDS011;33252;48.122;11.538;2023-05-15T00:40:58;5.85;;;4.70;;
47519;SDS011;33252;48.122;11.538;2023-05-15T00:43:25;7.88;;;5.25;;
47519;SDS011;33252;48.122;11.538;2023-05-15T00:45:52;7.68;;;5.78;;
47519;SDS011;33252;48.122;11.538;2023-05-15T00:48:19;8.57;;;5.43;;
47519;SDS011;33252;48.122;11.538;2023-05-15T00:50:48;9.02;;;5.32;;
47519;SDS011;33252;48.122;11.538;2023-05-15T00:53:18;7.15;;;5.25;;
47519;SDS011;33252;48.122;11.538;2023-05-15T00:55:46;8.38;;;5.85;;
47519;SDS011;33252;48.122;11.538;2023-05-15T00:58:13;7.85;;;5.80;;
47519;SDS011;33252;48.122;11.538;2023-05-15T01:00:39;8.10;;;5.90;;
47519;SDS011;33252;48.122;11.538;2023-05-15T01:03:09;12.93;;;7.45;;
47519;SDS011;33252;48.122;11.538;2023-05-15T01:05:35;10.35;;;7.43;;
47519;SDS011;33252;48.122;11.538;2023-05-15T01:08:20;11.23;;;8.07;;
47519;SDS011;33252;48.122;11.538;2023-05-15T01:10:51;10.15;;;7.35;;
47519;SDS011;33252;48.122;11.538;2023-05-15T01:13:18;11.18;;;7.60;;
47519;SDS011;33252;48.122;11.538;2023-05-15T01:15:45;11.70;;;7.85;;
47519;SDS011;33252;48.122;11.538;2023-05-15T01:18:11;9.57;;;7.47;;
47519;SDS011;33252;48.122;11.538;2023-05-15T01:29:23;13.50;;;8.70;;
47519;SDS011;33252;48.122;11.538;2023-05-15T01:32:01;11.38;;;7.60;;
47519;SDS011;33252;48.122;11.538;2023-05-15T01:34:43;11.03;;;8.30;;
47519;SDS011;33252;48.122;11.538;2023-05-15T01:37:18;12.40;;;8.30;;
47519;SDS011;33252;48.122;11.538;2023-05-15T01:39:48;12.52;;;7.85;;
47519;SDS011;33252;48.122;11.538;2023-05-15T01:42:19;11.52;;;8.43;;
47519;SDS011;33252;48.122;11.538;2023-05-15T01:44:52;11.73;;;8.27;;
47519;SDS011;33252;48.122;11.538;2023-05-15T01:47:52;10.77;;;7.90;;
47519;SDS011;33252;48.122;11.538;2023-05-15T01:50:13;12.90;;;8.65;;
47519;SDS011;33252;48.122;11.538;2023-05-15T01:52:46;10.98;;;8.07;;
47519;SDS011;33252;48.122;11.538;2023-05-15T01:55:14;10.52;;;7.68;;
47519;SDS011;33252;48.122;11.538;2023-05-15T01:57:41;13.10;;;8.57;;
47519;SDS011;33252;48.122;11.538;2023-05-15T02:00:09;13.63;;;9.75;;
47519;SDS011;33252;48.122;11.538;2023-05-15T02:02:35;14.02;;;9.05;;
47519;SDS011;33252;48.122;11.538;2023-05-15T02:05:02;14.65;;;9.40;;
47519;SDS011;33252;48.122;11.538;2023-05-15T02:07:29;11.13;;;8.30;;
47519;SDS011;33252;48.122;11.538;2023-05-15T02:09:56;13.10;;;9.07;;
47519;SDS011;33252;48.122;11.538;2023-05-15T02:12:23;12.18;;;8.50;;
47519;SDS011;33252;48.122;11.538;2023-05-15T02:14:51;15.25;;;9.73;;
47519;SDS011;33252;48.122;11.538;2023-05-15T02:17:18;16.85;;;9.70;;
47519;SDS011;33252;48.122;11.538;2023-05-15T02:19:44;13.88;;;9.60;;
47519;SDS011;33252;48.122;11.538;2023-05-15T02:22:10;13.80;;;9.20;;
47519;SDS011;33252;48.122;11.538;2023-05-15T02:24:35;16.60;;;11.10;;
47519;SDS011;33252;48.122;11.538;2023-05-15T02:27:03;15.88;;;10.13;;
47519;SDS011;33252;48.122;11.538;2023-05-15T02:32:16;14.90;;;9.45;;
47519;SDS011;33252;48.122;11.538;2023-05-15T02:37:45;14.05;;;9.85;;
47519;SDS011;33252;48.122;11.538;2023-05-15T02:40:14;13.35;;;9.60;;
47519;SDS011;33252;48.122;11.538;2023-05-15T02:42:43;14.02;;;9.07;;
47519;SDS011;33252;48.122;11.538;2023-05-15T02:45:10;14.25;;;10.13;;
47519;SDS011;33252;48.122;11.538;2023-05-15T02:47:36;14.65;;;9.13;;
47519;SDS011;33252;48.122;11.538;2023-05-15T02:50:03;13.48;;;9.25;;
47519;SDS011;33252;48.122;11.538;2023-05-15T02:52:30;14.20;;;9.98;;
47519;SDS011;33252;48.122;11.538;2023-05-15T02:54:58;13.85;;;9.40;;
47519;SDS011;33252;48.122;11.538;2023-05-15T02:57:24;12.90;;;8.25;;
47519;SDS011;33252;48.122;11.538;2023-05-15T02:59:51;13.23;;;8.98;;
47519;SDS011;33252;48.122;11.538;2023-05-15T03:02:17;13.65;;;9.10;;
47519;SDS011;33252;48.122;11.538;2023-05-15T03:04:43;14.15;;;8.95;;
47519;SDS011;33252;48.122;11.538;2023-05-15T03:07:09;14.13;;;9.30;;
47519;SDS011;33252;48.122;11.538;2023-05-15T03:09:35;14.63;;;9.00;;
47519;SDS011;33252;48.122;11.538;2023-05-15T03:12:01;12.88;;;8.20;;
47519;SDS011;33252;48.122;11.538;2023-05-15T03:14:26;13.88;;;8.10;;
47519;SDS011;33252;48.122;11.538;2023-05-15T03:16:52;13.95;;;8.45;;
47519;SDS011;33252;48.122;11.538;2023-05-15T03:19:18;10.45;;;7.32;;
47519;SDS011;33252;48.122;11.538;2023-05-15T03:21:43;14.05;;;8.55;;
47519;SDS011;33252;48.122;11.538;2023-05-15T03:24:09;13.88;;;8.98;;
47519;SDS011;33252;48.122;11.538;2023-05-15T03:26:34;13.75;;;8.60;;
47519;SDS011;33252;48.122;11.538;2023-05-15T03:29:00;13.60;;;8.45;;
47519;SDS011;33252;48.122;11.538;2023-05-15T03:31:26;14.55;;;8.23;;
47519;SDS011;33252;48.122;11.538;2023-05-15T03:33:52;13.07;;;7.63;;
47519;SDS011;33252;48.122;11.538;2023-05-15T03:36:17;13.85;;;7.82;;
47519;SDS011;33252;48.122;11.538;2023-05-15T03:38:43;13.93;;;8.73;;
47519;SDS011;33252;48.122;11.538;2023-05-15T03:41:09;11.80;;;7.93;;
47519;SDS011;33252;48.122;11.538;2023-05-15T03:43:35;11.00;;;7.65;;
47519;SDS011;33252;48.122;11.538;2023-05-15T03:46:00;13.18;;;8.75;;
47519;SDS011;33252;48.122;11.538;2023-05-15T03:48:26;13.63;;;8.65;;
47519;SDS011;33252;48.122;11.538;2023-05-15T03:50:51;12.65;;;7.90;;
47519;SDS011;33252;48.122;11.538;2023-05-15T03:53:17;13.35;;;8.73;;
47519;SDS011;33252;48.122;11.538;2023-05-15T03:55:43;15.52;;;9.20;;
47519;SDS011;33252;48.122;11.538;2023-05-15T03:58:09;13.30;;;9.23;;
47519;SDS011;33252;48.122;11.538;2023-05-15T04:00:34;12.40;;;8.00;;
47519;SDS011;33252;48.122;11.538;2023-05-15T04:03:00;16.17;;;8.70;;
47519;SDS011;33252;48.122;11.538;2023-05-15T04:05:26;14.85;;;9.48;;
47519;SDS011;33252;48.122;11.538;2023-05-15T04:07:51;13.25;;;9.07;;
47519;SDS011;33252;48.122;11.538;2023-05-15T04:10:17;15.48;;;9.07;;
47519;SDS011;33252;48.122;11.538;2023-05-15T04:12:43;16.08;;;9.40;;
47519;SDS011;33252;48.122;11.538;2023-05-15T04:15:16;15.35;;;10.38;;
47519;SDS011;33252;48.122;11.538;2023-05-15T04:17:47;15.55;;;10.77;;
47519;SDS011;33252;48.122;11.538;2023-05-15T04:20:15;16.65;;;10.57;;
47519;SDS011;33252;48.122;11.538;2023-05-15T04:22:42;17.08;;;10.02;;
47519;SDS011;33252;48.122;11.538;2023-05-15T04:25:09;14.88;;;10.20;;
47519;SDS011;33252;48.122;11.538;2023-05-15T04:27:35;16.90;;;9.88;;
47519;SDS011;33252;48.122;11.538;2023-05-15T04:30:02;14.45;;;10.55;;
47519;SDS011;33252;48.122;11.538;2023-05-15T04:32:29;13.75;;;9.07;;
47519;SDS011;33252;48.122;11.538;2023-05-15T04:34:57;15.98;;;9.65;;
47519;SDS011;33252;48.122;11.538;2023-05-15T04:37:24;14.55;;;9.55;;
47519;SDS011;33252;48.122;11.538;2023-05-15T04:39:50;17.13;;;10.30;;
47519;SDS011;33252;48.122;11.538;2023-05-15T04:42:15;12.40;;;9.05;;
47519;SDS011;33252;48.122;11.538;2023-05-15T04:44:41;12.43;;;8.80;;
47519;SDS011;33252;48.122;11.538;2023-05-15T04:47:07;14.70;;;9.75;;
47519;SDS011;33252;48.122;11.538;2023-05-15T04:49:32;13.45;;;9.85;;
47519;SDS011;33252;48.122;11.538;2023-05-15T04:51:58;15.50;;;10.65;;
47519;SDS011;33252;48.122;11.538;2023-05-15T04:54:24;15.70;;;10.02;;
47519;SDS011;33252;48.122;11.538;2023-05-15T04:56:49;15.10;;;9.48;;
47519;SDS011;33252;48.122;11.538;2023-05-15T04:59:15;15.57;;;9.27;;
47519;SDS011;33252;48.122;11.538;2023-05-15T05:01:42;15.40;;;10.65;;
47519;SDS011;33252;48.122;11.538;2023-05-15T05:04:07;16.67;;;9.73;;
47519;SDS011;33252;48.122;11.538;2023-05-15T05:06:33;13.10;;;9.30;;
47519;SDS011;33252;48.122;11.538;2023-05-15T05:08:58;15.38;;;10.13;;
47519;SDS011;33252;48.122;11.538;2023-05-15T05:11:24;14.40;;;9.18;;
47519;SDS011;33252;48.122;11.538;2023-05-15T05:13:50;14.45;;;9.10;;
47519;SDS011;33252;48.122;11.538;2023-05-15T05:16:15;15.73;;;9.52;;
47519;SDS011;33252;48.122;11.538;2023-05-15T05:18:41;13.80;;;9.73;;
47519;SDS011;33252;48.122;11.538;2023-05-15T05:21:07;13.63;;;9.45;;
47519;SDS011;33252;48.122;11.538;2023-05-15T05:23:32;13.57;;;9.07;;
47519;SDS011;33252;48.122;11.538;2023-05-15T05:25:58;13.05;;;9.55;;
47519;SDS011;33252;48.122;11.538;2023-05-15T05:28:24;14.15;;;9.98;;
47519;SDS011;33252;48.122;11.538;2023-05-15T05:30:50;14.98;;;10.20;;
47519;SDS011;33252;48.122;11.538;2023-05-15T05:33:15;14.98;;;9.70;;
47519;SDS011;33252;48.122;11.538;2023-05-15T05:35:41;13.80;;;9.07;;
47519;SDS011;33252;48.122;11.538;2023-05-15T05:38:07;16.30;;;10.15;;
47519;SDS011;33252;48.122;11.538;2023-05-15T05:40:32;14.77;;;9.82;;
47519;SDS011;33252;48.122;11.538;2023-05-15T05:42:59;14.00;;;8.63;;
47519;SDS011;33252;48.122;11.538;2023-05-15T05:45:25;12.65;;;8.63;;
47519;SDS011;33252;48.122;11.538;2023-05-15T05:47:51;15.50;;;9.45;;
47519;SDS011;33252;48.122;11.538;2023-05-15T05:50:16;14.90;;;9.38;;
47519;SDS011;33252;48.122;11.538;2023-05-15T05:52:42;13.88;;;9.77;;
47519;SDS011;33252;48.122;11.538;2023-05-15T05:55:08;14.23;;;9.57;;
47519;SDS011;33252;48.122;11.538;2023-05-15T05:57:34;15.27;;;8.70;;
47519;SDS011;33252;48.122;11.538;2023-05-15T06:00:00;16.98;;;9.45;;
47519;SDS011;33252;48.122;11.538;2023-05-15T06:02:26;16.05;;;9.85;;
47519;SDS011;33252;48.122;11.538;2023-05-15T06:04:51;11.98;;;9.60;;
47519;SDS011;33252;48.122;11.538;2023-05-15T06:07:17;13.55;;;9.07;;
47519;SDS011;33252;48.122;11.538;2023-05-15T06:09:43;22.60;;;13.48;;
47519;SDS011;33252;48.122;11.538;2023-05-15T06:12:09;16.40;;;9.20;;
47519;SDS011;33252;48.122;11.538;2023-05-15T06:14:36;13.05;;;8.68;;
47519;SDS011;33252;48.122;11.538;2023-05-15T06:17:02;14.63;;;8.77;;
47519;SDS011;33252;48.122;11.538;2023-05-15T06:19:27;14.90;;;9.88;;
47519;SDS011;33252;48.122;11.538;2023-05-15T06:21:53;17.05;;;9.80;;
47519;SDS011;33252;48.122;11.538;2023-05-15T06:24:19;13.85;;;9.13;;
47519;SDS011;33252;48.122;11.538;2023-05-15T06:26:44;12.98;;;8.75;;
47519;SDS011;33252;48.122;11.538;2023-05-15T06:29:10;12.65;;;8.25;;
47519;SDS011;33252;48.122;11.538;2023-05-15T06:31:36;13.80;;;9.45;;
47519;SDS011;33252;48.122;11.538;2023-05-15T06:34:01;13.30;;;9.23;;
47519;SDS011;33252;48.122;11.538;2023-05-15T06:36:27;11.38;;;8.88;;
47519;SDS011;33252;48.122;11.538;2023-05-15T06:38:53;15.80;;;9.52;;
47519;SDS011;33252;48.122;11.538;2023-05-15T06:41:18;12.70;;;8.90;;
47519;SDS011;33252;48.122;11.538;2023-05-15T06:43:45;14.27;;;9.13;;
47519;SDS011;33252;48.122;11.538;2023-05-15T06:46:11;14.32;;;9.35;;
47519;SDS011;33252;48.122;11.538;2023-05-15T06:48:40;13.05;;;8.95;;
47519;SDS011;33252;48.122;11.538;2023-05-15T06:51:05;12.55;;;8.75;;
47519;SDS011;33252;48.122;11.538;2023-05-15T06:53:31;12.68;;;9.63;;
47519;SDS011;33252;48.122;11.538;2023-05-15T06:55:57;16.75;;;12.18;;
47519;SDS011;33252;48.122;11.538;2023-05-15T06:58:23;13.32;;;8.48;;
47519;SDS011;33252;48.122;11.538;2023-05-15T07:00:49;12.98;;;9.68;;
47519;SDS011;33252;48.122;11.538;2023-05-15T07:03:14;11.82;;;8.77;;
47519;SDS011;33252;48.122;11.538;2023-05-15T07:05:40;13.07;;;8.77;;
47519;SDS011;33252;48.122;11.538;2023-05-15T07:08:06;12.65;;;8.52;;
47519;SDS011;33252;48.122;11.538;2023-05-15T07:10:32;11.20;;;8.70;;
47519;SDS011;33252;48.122;11.538;2023-05-15T07:12:57;11.52;;;8.38;;
47519;SDS011;33252;48.122;11.538;2023-05-15T07:15:23;10.35;;;7.70;;
47519;SDS011;33252;48.122;11.538;2023-05-15T07:17:49;10.45;;;7.43;;
47519;SDS011;33252;48.122;11.538;2023-05-15T07:20:14;10.35;;;7.50;;
47519;SDS011;33252;48.122;11.538;2023-05-15T07:22:40;11.10;;;8.15;;
47519;SDS011;33252;48.122;11.538;2023-05-15T07:25:06;9.85;;;6.63;;
47519;SDS011;33252;48.122;11.538;2023-05-15T07:27:32;10.65;;;7.80;;
47519;SDS011;33252;48.122;11.538;2023-05-15T07:29:57;9.57;;;7.00;;
47519;SDS011;33252;48.122;11.538;2023-05-15T07:32:23;10.77;;;7.55;;
47519;SDS011;33252;48.122;11.538;2023-05-15T07:34:49;8.63;;;6.20;;
47519;SDS011;33252;48.122;11.538;2023-05-15T07:37:15;7.47;;;5.63;;
47519;SDS011;33252;48.122;11.538;2023-05-15T07:39:40;8.02;;;5.68;;
47519;SDS011;33252;48.122;11.538;2023-05-15T07:42:06;7.50;;;5.60;;
47519;SDS011;33252;48.122;11.538;2023-05-15T07:44:31;8.77;;;5.88;;
47519;SDS011;33252;48.122;11.538;2023-05-15T07:46:57;7.63;;;5.88;;
47519;SDS011;33252;48.122;11.538;2023-05-15T07:49:23;7.40;;;5.22;;
47519;SDS011;33252;48.122;11.538;2023-05-15T07:51:48;7.97;;;5.82;;
47519;SDS011;33252;48.122;11.538;2023-05-15T07:54:14;7.47;;;5.13;;
47519;SDS011;33252;48.122;11.538;2023-05-15T07:56:40;6.60;;;5.20;;
47519;SDS011;33252;48.122;11.538;2023-05-15T07:59:06;8.02;;;6.13;;
47519;SDS011;33252;48.122;11.538;2023-05-15T08:01:32;8.50;;;5.68;;
47519;SDS011;33252;48.122;11.538;2023-05-15T08:03:57;9.40;;;7.00;;
47519;SDS011;33252;48.122;11.538;2023-05-15T08:06:23;7.85;;;5.80;;
47519;SDS011;33252;48.122;11.538;2023-05-15T08:08:49;9.02;;;5.85;;
47519;SDS011;33252;48.122;11.538;2023-05-15T08:11:15;11.93;;;7.10;;
47519;SDS011;33252;48.122;11.538;2023-05-15T08:13:40;9.85;;;7.47;;
47519;SDS011;33252;48.122;11.538;2023-05-15T08:16:06;6.30;;;5.10;;
47519;SDS011;33252;48.122;11.538;2023-05-15T08:18:32;6.78;;;5.43;;
47519;SDS011;33252;48.122;11.538;2023-05-15T08:20:57;6.60;;;4.88;;
47519;SDS011;33252;48.122;11.538;2023-05-15T08:23:23;5.82;;;4.88;;
47519;SDS011;33252;48.122;11.538;2023-05-15T08:25:49;6.90;;;5.28;;
47519;SDS011;33252;48.122;11.538;2023-05-15T08:28:14;9.20;;;6.07;;
47519;SDS011;33252;48.122;11.538;2023-05-15T08:30:40;7.05;;;5.75;;
47519;SDS011;33252;48.122;11.538;2023-05-15T08:33:06;6.38;;;4.97;;
47519;SDS011;33252;48.122;11.538;2023-05-15T08:35:32;7.45;;;5.68;;
47519;SDS011;33252;48.122;11.538;2023-05-15T08:37:58;7.28;;;5.55;;
47519;SDS011;33252;48.122;11.538;2023-05-15T08:40:23;6.80;;;5.43;;
47519;SDS011;33252;48.122;11.538;2023-05-15T08:42:51;7.80;;;5.57;;
47519;SDS011;33252;48.122;11.538;2023-05-15T08:45:19;8.70;;;6.15;;
47519;SDS011;33252;48.122;11.538;2023-05-15T08:47:45;6.20;;;5.07;;
47519;SDS011;33252;48.122;11.538;2023-05-15T08:50:12;6.50;;;5.75;;
47519;SDS011;33252;48.122;11.538;2023-05-15T08:52:42;6.22;;;5.05;;
47519;SDS011;33252;48.122;11.538;2023-05-15T08:55:09;7.07;;;4.95;;
47519;SDS011;33252;48.122;11.538;2023-05-15T08:57:36;7.57;;;5.90;;
47519;SDS011;33252;48.122;11.538;2023-05-15T09:00:02;7.63;;;5.32;;
47519;SDS011;33252;48.122;11.538;2023-05-15T09:02:38;6.75;;;5.05;;
47519;SDS011;33252;48.122;11.538;2023-05-15T09:05:05;6.38;;;5.03;;
47519;SDS011;33252;48.122;11.538;2023-05-15T09:07:32;6.78;;;5.07;;
47519;SDS011;33252;48.122;11.538;2023-05-15T09:09:59;6.13;;;5.43;;
47519;SDS011;33252;48.122;11.538;2023-05-15T09:12:27;7.10;;;4.68;;
47519;SDS011;33252;48.122;11.538;2023-05-15T09:15:08;7.18;;;5.25;;
47519;SDS011;33252;48.122;11.538;2023-05-15T09:17:36;6.05;;;4.88;;
47519;SDS011;33252;48.122;11.538;2023-05-15T09:20:02;5.55;;;4.82;;
47519;SDS011;33252;48.122;11.538;2023-05-15T09:22:33;6.43;;;5.05;;
47519;SDS011;33252;48.122;11.538;2023-05-15T09:24:59;5.22;;;3.85;;
47519;SDS011;33252;48.122;11.538;2023-05-15T09:27:27;7.45;;;4.78;;
47519;SDS011;33252;48.122;11.538;2023-05-15T09:29:52;6.18;;;3.75;;
47519;SDS011;33252;48.122;11.538;2023-05-15T09:32:20;4.95;;;4.07;;
47519;SDS011;33252;48.122;11.538;2023-05-15T09:34:46;6.38;;;4.55;;
47519;SDS011;33252;48.122;11.538;2023-05-15T09:37:26;5.88;;;4.20;;
47519;SDS011;33252;48.122;11.538;2023-05-15T09:39:54;5.45;;;4.25;;
47519;SDS011;33252;48.122;11.538;2023-05-15T09:42:20;9.73;;;4.97;;
47519;SDS011;33252;48.122;11.538;2023-05-15T09:44:48;5.88;;;4.20;;
47519;SDS011;33252;48.122;11.538;2023-05-15T09:47:14;5.70;;;4.50;;
47519;SDS011;33252;48.122;11.538;2023-05-15T09:49:44;7.78;;;4.10;;
47519;SDS011;33252;48.122;11.538;2023-05-15T09:52:10;5.63;;;4.18;;
47519;SDS011;33252;48.122;11.538;2023-05-15T09:54:36;4.93;;;3.90;;
47519;SDS011;33252;48.122;11.538;2023-05-15T09:57:08;5.18;;;4.07;;
47519;SDS011;33252;48.122;11.538;2023-05-15T09:59:35;6.28;;;4.07;;
47519;SDS011;33252;48.122;11.538;2023-05-15T10:02:28;5.65;;;4.78;;
47519;SDS011;33252;48.122;11.538;2023-05-15T10:04:58;5.40;;;4.65;;
47519;SDS011;33252;48.122;11.538;2023-05-15T10:07:31;6.75;;;4.60;;
47519;SDS011;33252;48.122;11.538;2023-05-15T10:09:59;6.28;;;4.20;;
47519;SDS011;33252;48.122;11.538;2023-05-15T10:12:27;6.38;;;3.88;;
47519;SDS011;33252;48.122;11.538;2023-05-15T10:14:54;6.03;;;3.60;;
47519;SDS011;33252;48.122;11.538;2023-05-15T10:17:21;5.65;;;4.05;;
47519;SDS011;33252;48.122;11.538;2023-05-15T10:19:50;7.65;;;4.28;;
47519;SDS011;33252;48.122;11.538;2023-05-15T10:22:21;5.25;;;4.25;;
47519;SDS011;33252;48.122;11.538;2023-05-15T10:24:55;6.88;;;4.28;;
47519;SDS011;33252;48.122;11.538;2023-05-15T10:27:42;6.68;;;4.20;;
47519;SDS011;33252;48.122;11.538;2023-05-15T10:30:10;8.77;;;4.85;;
47519;SDS011;33252;48.122;11.538;2023-05-15T10:32:38;5.95;;;5.00;;
47519;SDS011;33252;48.122;11.538;2023-05-15T10:35:06;7.15;;;5.28;;
47519;SDS011;33252;48.122;11.538;2023-05-15T10:37:34;7.70;;;5.22;;
47519;SDS011;33252;48.122;11.538;2023-05-15T10:40:00;7.72;;;4.90;;
47519;SDS011;33252;48.122;11.538;2023-05-15T10:42:27;8.23;;;5.60;;
47519;SDS011;33252;48.122;11.538;2023-05-15T10:44:57;6.95;;;4.63;;
47519;SDS011;33252;48.122;11.538;2023-05-15T10:47:26;5.55;;;4.78;;
47519;SDS011;33252;48.122;11.538;2023-05-15T10:49:54;5.70;;;4.82;;
47519;SDS011;33252;48.122;11.538;2023-05-15T10:52:20;6.75;;;4.43;;
47519;SDS011;33252;48.122;11.538;2023-05-15T10:54:45;7.60;;;5.63;;
47519;SDS011;33252;48.122;11.538;2023-05-15T10:57:12;10.38;;;4.88;;
47519;SDS011;33252;48.122;11.538;2023-05-15T10:59:38;6.57;;;5.75;;
47519;SDS011;33252;48.122;11.538;2023-05-15T11:05:00;9.02;;;6.28;;
47519;SDS011;33252;48.122;11.538;2023-05-15T11:07:30;11.35;;;7.13;;
47519;SDS011;33252;48.122;11.538;2023-05-15T11:09:56;7.97;;;6.50;;
47519;SDS011;33252;48.122;11.538;2023-05-15T11:12:21;9.32;;;6.72;;
47519;SDS011;33252;48.122;11.538;2023-05-15T11:17:22;10.23;;;7.22;;
47519;SDS011;33252;48.122;11.538;2023-05-15T11:24:53;7.50;;;6.05;;
47519;SDS011;33252;48.122;11.538;2023-05-15T11:27:31;9.85;;;6.90;;
47519;SDS011;33252;48.122;11.538;2023-05-15T11:30:09;8.23;;;6.50;;
47519;SDS011;33252;48.122;11.538;2023-05-15T11:32:58;9.57;;;6.63;;
47519;SDS011;33252;48.122;11.538;2023-05-15T11:35:26;10.20;;;7.78;;
47519;SDS011;33252;48.122;11.538;2023-05-15T11:37:56;7.35;;;6.05;;
47519;SDS011;33252;48.122;11.538;2023-05-15T11:40:27;9.82;;;6.90;;
47519;SDS011;33252;48.122;11.538;2023-05-15T11:43:23;10.38;;;7.63;;
47519;SDS011;33252;48.122;11.538;2023-05-15T11:45:54;11.38;;;6.80;;
47519;SDS011;33252;48.122;11.538;2023-05-15T11:48:34;10.15;;;7.72;;
47519;SDS011;33252;48.122;11.538;2023-05-15T11:51:00;11.07;;;8.32;;
47519;SDS011;33252;48.122;11.538;2023-05-15T11:53:26;11.65;;;7.60;;
47519;SDS011;33252;48.122;11.538;2023-05-15T11:55:53;10.98;;;7.60;;
47519;SDS011;33252;48.122;11.538;2023-05-15T11:58:20;10.77;;;6.82;;
47519;SDS011;33252;48.122;11.538;2023-05-15T12:00:47;10.73;;;6.47;;
47519;SDS011;33252;48.122;11.538;2023-05-15T12:06:13;8.57;;;6.47;;
47519;SDS011;33252;48.122;11.538;2023-05-15T12:08:39;8.55;;;6.07;;
47519;SDS011;33252;48.122;11.538;2023-05-15T12:11:06;8.27;;;6.57;;
47519;SDS011;33252;48.122;11.538;2023-05-15T12:13:32;13.07;;;6.85;;
47519;SDS011;33252;48.122;11.538;2023-05-15T12:15:59;10.05;;;6.90;;
47519;SDS011;33252;48.122;11.538;2023-05-15T12:18:29;8.90;;;6.60;;
47519;SDS011;33252;48.122;11.538;2023-05-15T12:20:56;11.80;;;8.18;;
47519;SDS011;33252;48.122;11.538;2023-05-15T12:23:22;10.05;;;6.60;;
47519;SDS011;33252;48.122;11.538;2023-05-15T12:25:50;8.80;;;6.40;;
47519;SDS011;33252;48.122;11.538;2023-05-15T12:28:21;7.32;;;5.88;;
47519;SDS011;33252;48.122;11.538;2023-05-15T12:30:47;9.18;;;5.93;;
47519;SDS011;33252;48.122;11.538;2023-05-15T12:33:13;8.25;;;6.47;;
47519;SDS011;33252;48.122;11.538;2023-05-15T12:35:43;10.43;;;6.38;;
47519;SDS011;33252;48.122;11.538;2023-05-15T12:38:14;9.43;;;6.72;;
47519;SDS011;33252;48.122;11.538;2023-05-15T12:40:43;12.13;;;6.85;;
47519;SDS011;33252;48.122;11.538;2023-05-15T12:43:10;8.75;;;6.35;;
47519;SDS011;33252;48.122;11.538;2023-05-15T12:45:38;9.88;;;6.50;;
47519;SDS011;33252;48.122;11.538;2023-05-15T12:48:04;9.65;;;6.22;;
47519;SDS011;33252;48.122;11.538;2023-05-15T12:50:32;8.13;;;5.63;;
47519;SDS011;33252;48.122;11.538;2023-05-15T12:53:00;9.45;;;6.57;;
47519;SDS011;33252;48.122;11.538;2023-05-15T12:57:52;8.55;;;5.45;;
47519;SDS011;33252;48.122;11.538;2023-05-15T13:00:22;8.57;;;5.45;;
47519;SDS011;33252;48.122;11.538;2023-05-15T13:02:50;7.57;;;5.78;;
47519;SDS011;33252;48.122;11.538;2023-05-15T13:05:17;9.80;;;6.00;;
47519;SDS011;33252;48.122;11.538;2023-05-15T13:07:43;7.43;;;5.68;;
47519;SDS011;33252;48.122;11.538;2023-05-15T13:10:09;6.65;;;5.45;;
47519;SDS011;33252;48.122;11.538;2023-05-15T13:13:09;6.90;;;5.03;;
47519;SDS011;33252;48.122;11.538;2023-05-15T13:15:29;8.48;;;4.50;;
47519;SDS011;33252;48.122;11.538;2023-05-15T13:18:02;7.18;;;4.32;;
47519;SDS011;33252;48.122;11.538;2023-05-15T13:20:34;6.53;;;4.90;;
47519;SDS011;33252;48.122;11.538;2023-05-15T13:23:03;4.60;;;3.53;;
47519;SDS011;33252;48.122;11.538;2023-05-15T13:25:29;5.20;;;4.22;;
47519;SDS011;33252;48.122;11.538;2023-05-15T13:27:56;6.30;;;3.95;;
47519;SDS011;33252;48.122;11.538;2023-05-15T13:30:23;4.68;;;3.35;;
47519;SDS011;33252;48.122;11.538;2023-05-15T13:32:50;5.38;;;3.72;;
47519;SDS011;33252;48.122;11.538;2023-05-15T13:35:16;5.90;;;4.50;;
47519;SDS011;33252;48.122;11.538;2023-05-15T13:37:42;6.28;;;4.20;;
47519;SDS011;33252;48.122;11.538;2023-05-15T13:40:08;4.38;;;3.97;;
47519;SDS011;33252;48.122;11.538;2023-05-15T13:42:35;7.82;;;5.10;;
47519;SDS011;33252;48.122;11.538;2023-05-15T13:45:03;9.60;;;5.28;;
47519;SDS011;33252;48.122;11.538;2023-05-15T13:47:29;7.25;;;4.80;;
47519;SDS011;33252;48.122;11.538;2023-05-15T13:49:55;6.18;;;4.35;;
47519;SDS011;33252;48.122;11.538;2023-05-15T13:52:20;7.20;;;5.72;;
47519;SDS011;33252;48.122;11.538;2023-05-15T13:54:46;6.53;;;4.90;;
47519;SDS011;33252;48.122;11.538;2023-05-15T13:57:11;5.97;;;5.38;;
47519;SDS011;33252;48.122;11.538;2023-05-15T13:59:37;7.97;;;5.00;;
47519;SDS011;33252;48.122;11.538;2023-05-15T14:02:03;5.13;;;4.63;;
47519;SDS011;33252;48.122;11.538;2023-05-15T14:04:28;4.82;;;4.28;;
47519;SDS011;33252;48.122;11.538;2023-05-15T14:06:54;7.18;;;4.75;;
47519;SDS011;33252;48.122;11.538;2023-05-15T14:09:20;4.63;;;3.70;;
47519;SDS011;33252;48.122;11.538;2023-05-15T14:11:46;6.00;;;4.05;;
47519;SDS011;33252;48.122;11.538;2023-05-15T14:14:11;6.50;;;3.60;;
47519;SDS011;33252;48.122;11.538;2023-05-15T14:16:37;4.05;;;2.85;;
47519;SDS011;33252;48.122;11.538;2023-05-15T14:19:02;3.47;;;3.15;;
47519;SDS011;33252;48.122;11.538;2023-05-15T14:21:28;5.68;;;3.47;;
47519;SDS011;33252;48.122;11.538;2023-05-15T14:23:54;3.38;;;2.72;;
47519;SDS011;33252;48.122;11.538;2023-05-15T14:26:19;4.78;;;3.40;;
47519;SDS011;33252;48.122;11.538;2023-05-15T14:28:46;3.47;;;2.55;;
47519;SDS011;33252;48.122;11.538;2023-05-15T14:31:11;3.55;;;3.03;;
47519;SDS011;33252;48.122;11.538;2023-05-15T14:33:38;3.88;;;2.67;;
47519;SDS011;33252;48.122;11.538;2023-05-15T14:36:04;2.63;;;2.40;;
47519;SDS011;33252;48.122;11.538;2023-05-15T14:38:30;4.88;;;3.17;;
47519;SDS011;33252;48.122;11.538;2023-05-15T14:40:56;3.50;;;2.63;;
47519;SDS011;33252;48.122;11.538;2023-05-15T14:43:22;3.88;;;3.40;;
47519;SDS011;33252;48.122;11.538;2023-05-15T14:45:50;6.38;;;2.75;;
47519;SDS011;33252;48.122;11.538;2023-05-15T14:48:16;4.00;;;3.10;;
47519;SDS011;33252;48.122;11.538;2023-05-15T14:50:43;3.15;;;2.47;;
47519;SDS011;33252;48.122;11.538;2023-05-15T14:53:09;4.55;;;3.22;;
47519;SDS011;33252;48.122;11.538;2023-05-15T14:55:34;3.90;;;2.20;;
47519;SDS011;33252;48.122;11.538;2023-05-15T14:58:00;3.95;;;3.00;;
47519;SDS011;33252;48.122;11.538;2023-05-15T15:00:26;3.35;;;2.40;;